Wabush, Canada
Current Conditions -  °F | °C
As of 6:00 AM on Thursday 27 Nov 2014 (Local Time) from CYWK Reporting Station
Clear Clear  
Wind Chill: -2°   Ceiling: Unl
Heat Index: -2°   Visibility: 15mi
Dew Point: -4°   Wind: 3mph
Humidity: 92%   Direction: 40°NE
Pressure: 30.02"   Gusts: NA
Location:  52.9°N, 66.87°W
Report Text: CYWK 271000Z 04003KT 15SM SKC M19/M20 A3002 RMK SLP219
Loading
Personal Weather Stations






























Interactive Weather Map New forecast layout! Learn more

10-Day Weather Forecast

Advertisements
Track Severe Weather on mobile